Weather History for Clovis, NM

Change the Weather History Date:

Sunday, December 23, 2012

  Actual Average Record
Temperature  
Mean Temperature 46 °F -  
Max Temperature 64 °F 49 °F 73 °F (1955)
Min Temperature 28 °F 22 °F -5 °F (1990)
Degree Days  
Heating Degree Days 19    
Moisture  
Dew Point 11 °F    
Average Humidity 30    
Maximum Humidity 64    
Minimum Humidity 11    
Precipitation  
Precipitation 0.00 in - - ()
Sea Level Pressure  
Sea Level Pressure 29.98 in    
Wind  
Wind Speed 14 mph (West)    
Max Wind Speed 34 mph    
Max Gust Speed 41 mph    
Visibility 9 miles    
Events      
Averages and records for this station are not official NWS values.
T = Trace of Precipitation, MM = Missing Value Source: NWS Daily Summary

Daily Weather History Graph

Daily Weather History Graph

Search for Another Location

Airport:

Trip Planner

Search our weather history database for the weather conditions in past years. The results will help you decide how hot, cold, wet, or windy it might be!

Date:

Astronomy

Dec. 23, 2012 Rise Set
Actual Time 6:56 AM MST 4:47 PM MST
Civil Twilight 6:28 AM MST 5:15 PM MST
Nautical Twilight 5:56 AM MST 5:46 PM MST
Astronomical Twilight 5:26 AM MST 6:17 PM MST
Moon 1:34 PM MST (12/23) 2:46 AM MST (12/23)
Length of Visible Light 10h 47m
Length of Day
9h 51m
Waxing Gibbous, 82% of the Moon is Illuminated
Dec 23
Waxing Gibbous
Dec 28
Full
Jan 4
Last Quarter
Jan 11
New
Jan 18
First Quarter

Hourly Weather History & Observations

Time (MST) Temp. Windchill Dew Point Humidity Pressure Visibility Wind Dir Wind Speed Gust Speed Precip Events Conditions
12:15 AM 39.2 °F 30.2 °F 12.2 °F 33% 29.99 in 10.0 mi West 17.3 mph - N/A   Clear
12:35 AM 39.2 °F 32.0 °F 12.2 °F 33% 30.00 in 10.0 mi West 11.5 mph - N/A   Clear
12:55 AM 37.4 °F 30.3 °F 12.2 °F 36% 30.00 in 10.0 mi WNW 10.4 mph - N/A   Clear
1:15 AM 37.4 °F 30.3 °F 12.2 °F 36% 29.99 in 10.0 mi West 10.4 mph - N/A   Clear
1:35 AM 35.6 °F 30.7 °F 12.2 °F 38% 29.99 in 10.0 mi WSW 5.8 mph - N/A   Clear
1:55 AM 33.8 °F 27.0 °F 10.4 °F 38% 29.99 in 10.0 mi West 8.1 mph - N/A   Clear
2:15 AM 33.8 °F 25.8 °F 14.0 °F 44% 29.99 in 10.0 mi West 10.4 mph - N/A   Clear
2:35 AM 35.6 °F 27.1 °F 15.8 °F 44% 29.99 in 10.0 mi West 12.7 mph - N/A   Clear
2:55 AM 33.8 °F 24.3 °F 15.8 °F 48% 29.99 in 10.0 mi WNW 13.8 mph - N/A   Clear
3:15 AM 33.8 °F 26.4 °F 15.8 °F 48% 30.00 in 10.0 mi West 9.2 mph - N/A   Clear
3:35 AM 33.8 °F 27.0 °F 15.8 °F 48% 30.00 in 10.0 mi West 8.1 mph - N/A   Clear
3:55 AM 32.0 °F 25.6 °F 15.8 °F 51% 29.99 in 10.0 mi West 6.9 mph - N/A   Clear
4:15 AM 32.0 °F 22.5 °F 14.0 °F 48% 29.99 in 10.0 mi West 12.7 mph - N/A   Clear
4:35 AM 35.6 °F 27.5 °F 17.6 °F 48% 29.98 in 10.0 mi West 11.5 mph - N/A   Clear
4:55 AM 33.8 °F 26.4 °F 17.6 °F 52% 29.98 in 10.0 mi West 9.2 mph - N/A   Clear
5:15 AM 32.0 °F 26.4 °F 15.8 °F 51% 29.98 in 10.0 mi West 5.8 mph - N/A   Clear
5:35 AM 32.0 °F 27.5 °F 15.8 °F 51% 29.98 in 10.0 mi WNW 4.6 mph - N/A   Clear
5:55 AM 30.2 °F 26.7 °F 15.8 °F 55% 29.98 in 10.0 mi WSW 3.5 mph - N/A   Clear
6:15 AM 28.4 °F 24.6 °F 15.8 °F 59% 29.98 in 10.0 mi SW 3.5 mph - N/A   Clear
6:35 AM 28.4 °F - 17.6 °F 64% 29.98 in 10.0 mi Calm Calm - N/A   Clear
6:55 AM 30.2 °F 23.4 °F 17.6 °F 60% 29.99 in 10.0 mi West 6.9 mph - N/A   Clear
7:15 AM 32.0 °F 24.8 °F 17.6 °F 55% 29.98 in 9.0 mi West 8.1 mph - N/A   Clear
7:35 AM 37.4 °F 28.5 °F 19.4 °F 48% 29.98 in 10.0 mi West 15.0 mph - N/A   Clear
7:55 AM 39.2 °F 29.8 °F 21.2 °F 49% 29.98 in 10.0 mi West 18.4 mph 21.9 mph N/A   Clear
8:15 AM 42.8 °F 34.5 °F 21.2 °F 42% 29.98 in 10.0 mi West 18.4 mph 24.2 mph N/A   Clear
8:35 AM 46.4 °F 38.5 °F 23.0 °F 40% 29.98 in 10.0 mi West 21.9 mph 26.5 mph N/A   Clear
8:55 AM 48.2 °F - 21.2 °F 34% 29.98 in 10.0 mi West 21.9 mph 28.8 mph N/A   Clear
9:15 AM 50.0 °F - 21.2 °F 32% 29.98 in 10.0 mi West 19.6 mph 28.8 mph N/A   Clear
9:35 AM 51.8 °F - 19.4 °F 28% 29.99 in 6.0 mi WNW 23.0 mph 31.1 mph N/A   Clear
10:15 AM 57.2 °F - 19.4 °F 23% 29.98 in 2.5 mi West 27.6 mph 34.5 mph N/A   Partly Cloudy
10:35 AM 57.2 °F - 17.6 °F 21% 29.98 in 2.0 mi West 27.6 mph 38.0 mph N/A   Mostly Cloudy
10:55 AM 59.0 °F - 17.6 °F 20% 29.98 in 3.0 mi West 27.6 mph 36.8 mph N/A   Scattered Clouds
11:15 AM 60.8 °F - 15.8 °F 17% 29.96 in 2.0 mi West 29.9 mph 38.0 mph N/A   Overcast
11:35 AM 60.8 °F - 12.2 °F 15% 29.96 in 2.5 mi West 31.1 mph 38.0 mph N/A   Overcast
11:55 AM 62.6 °F - 12.2 °F 14% 29.95 in 2.5 mi WNW 29.9 mph 40.3 mph N/A   Overcast
12:15 PM 62.6 °F - 12.2 °F 14% 29.94 in 1.8 mi West 29.9 mph 41.4 mph N/A   Overcast
12:35 PM 62.6 °F - 12.2 °F 14% 29.93 in 3.0 mi WNW 34.5 mph 38.0 mph N/A   Mostly Cloudy
12:55 PM 64.4 °F - 12.2 °F 13% 29.93 in 3.0 mi WNW 32.2 mph 40.3 mph N/A   Partly Cloudy
1:15 PM 62.6 °F - 10.4 °F 13% 29.93 in 7.0 mi West 28.8 mph 36.8 mph N/A   Partly Cloudy
1:35 PM 64.4 °F - 10.4 °F 12% 29.93 in 7.0 mi West 29.9 mph 36.8 mph N/A   Clear
1:55 PM 64.4 °F - 10.4 °F 12% 29.93 in 10.0 mi WNW 25.3 mph 36.8 mph N/A   Clear
2:15 PM 64.4 °F - 10.4 °F 12% 29.93 in 10.0 mi WNW 20.7 mph 29.9 mph N/A   Clear
2:35 PM 64.4 °F - 8.6 °F 11% 29.92 in 10.0 mi West 28.8 mph 33.4 mph N/A   Clear
2:55 PM 64.4 °F - 8.6 °F 11% 29.93 in 10.0 mi West 25.3 mph 33.4 mph N/A   Clear
3:15 PM 62.6 °F - 6.8 °F 11% 29.94 in 10.0 mi West 21.9 mph 29.9 mph N/A   Clear
3:35 PM 62.6 °F - 6.8 °F 11% 29.94 in 10.0 mi West 23.0 mph 28.8 mph N/A   Clear
3:55 PM 62.6 °F - 6.8 °F 11% 29.94 in 10.0 mi WNW 21.9 mph - N/A   Clear
4:15 PM 60.8 °F - 5.0 °F 11% 29.94 in 10.0 mi West 16.1 mph - N/A   Clear
4:35 PM 57.2 °F - 3.2 °F 11% 29.95 in 10.0 mi West 19.6 mph 27.6 mph N/A   Clear
4:55 PM 55.4 °F - 1.4 °F 11% 29.96 in 10.0 mi West 17.3 mph - N/A   Clear
5:15 PM 53.6 °F - 1.4 °F 12% 29.95 in 10.0 mi West 16.1 mph - N/A   Clear
5:35 PM 51.8 °F - 1.4 °F 13% 29.96 in 10.0 mi West 15.0 mph - N/A   Clear
5:55 PM 51.8 °F - 3.2 °F 14% 29.96 in 10.0 mi WNW 15.0 mph - N/A   Clear
6:15 PM 48.2 °F - 3.2 °F 16% 29.97 in 10.0 mi WNW 12.7 mph - N/A   Clear
6:35 PM 44.6 °F 39.2 °F 1.4 °F 17% 29.98 in 10.0 mi WNW 10.4 mph - N/A   Clear
6:55 PM 42.8 °F 37.0 °F 3.2 °F 19% 29.99 in 10.0 mi West 10.4 mph - N/A   Clear
7:15 PM 41.0 °F 34.7 °F 3.2 °F 21% 29.99 in 10.0 mi West 10.4 mph - N/A   Clear
7:55 PM 37.4 °F 30.8 °F 5.0 °F 26% 30.01 in 10.0 mi WNW 9.2 mph - N/A   Clear
8:15 PM 35.6 °F 28.0 °F 5.0 °F 28% 30.01 in 10.0 mi WNW 10.4 mph - N/A   Clear
8:35 PM 35.6 °F 29.2 °F 6.8 °F 30% 30.02 in 10.0 mi NW 8.1 mph - N/A   Clear
8:55 PM 37.4 °F 31.4 °F 6.8 °F 28% 30.04 in 10.0 mi WNW 8.1 mph - N/A   Clear
9:15 PM 35.6 °F 29.2 °F 5.0 °F 28% 30.05 in 10.0 mi WNW 8.1 mph - N/A   Clear
9:35 PM 35.6 °F 29.9 °F 6.8 °F 30% 30.05 in 10.0 mi WNW 6.9 mph - N/A   Clear
9:55 PM 35.6 °F - 5.0 °F 28% 30.04 in 10.0 mi Calm Calm - N/A   Clear
10:15 PM 35.6 °F - 5.0 °F 28% 30.05 in 10.0 mi Calm Calm - N/A   Clear
10:35 PM 37.4 °F 34.9 °F 6.8 °F 28% 30.03 in 10.0 mi East 3.5 mph - N/A   Clear
10:55 PM 33.8 °F - 3.2 °F 28% 30.04 in 10.0 mi Calm Calm - N/A   Clear
11:15 PM 35.6 °F 30.7 °F 8.6 °F 33% 30.02 in 10.0 mi ENE 5.8 mph - N/A   Clear
11:35 PM 33.8 °F 29.6 °F 3.2 °F 28% 30.02 in 10.0 mi NE 4.6 mph - N/A   Clear
11:55 PM 30.2 °F 22.6 °F 1.4 °F 29% 30.02 in 10.0 mi NNE 8.1 mph - N/A   Clear